Aérodrome :
LOGIN :

S'inscrire | Disclaimer

   EN    FR    IT 

 










Légende :    VFR   VFR Marginal   IFR   IFR Intensif   IFR Très Intensif
Visi : 
Plafond : 
>= 8 km
>= 3000ft
5 à 8 km
1000 à 3000 ft
1500m à 5 km
500 à 1000 ft
800 à 1500m
200 à 500 ft
< 800m
< 200 ft
Symboles :   Orages  Brouillard  Fortes neiges  Fortes précipitations  Vent > 20 kt
SIGMETs :   Divers  Orages  Givrage  Turbulence  Onde Orograph.  Cendres Volcan.






- Altitude de l'aérodrome : 821 ft
- Code IATA : LYS


LFLL - Lyon St Exupéry / Satolas

DERNIER METAR :
  • 272130Z 33009KT CAVOK 06/01 Q1017 NOSIG

METARs EXPIRÉS :
  • 272100Z 33012KT 9999 FEW048 07/01 Q1016 NOSIG
  • 272030Z 33012KT 9999 SCT048 08/01 Q1015 NOSIG
  • 272000Z 34009KT 9999 BKN048 08/03 Q1014 NOSIG
  • 271930Z 35006KT 9999 BKN050 09/03 Q1014 NOSIG
  • 271900Z 32011KT 9999 FEW030TCU BKN043 09/04 Q1012 NOSIG

TAF TAF LFLL
Valide du 27 à 18h jusqu'au 29 à 00h UTC


271700Z 2718/2824 31009KT 9999 FEW030 BKN045
PROB40
TEMPO 2718/2720 33015G25KT 4500 SHRA SCT030TCU BKN035
BECMG 2722/2801 VRB02KT CAVOK
BECMG 2811/2814 14005KT
BECMG 2821/2824 18020G30KT



MET'MAP, la Météo Aéronautique d'un coup d'oeil ! - Copyright ORBIFLY Décembre 2007 - Disclaimer

ORBIFLY MET'MAP TEAM :

Programmation & Développement : Alexandra Zaïnal
Sur une idée originale de : Baudouin d'Aumeries
Assistance à la programmation : Marc-Olivier Méhu
Soutien technique & logistique : Manuel Goepfert

Contact : metmap@orbifly.com




SOURCES & CREDITS :

   NOAA